createdAt,value
2023-05-14T01:26:40.336Z,23.23
2023-05-14T01:38:19.867Z,15.95
2023-05-14T01:55:38.364Z,20.80
2023-05-14T02:13:06.822Z,24.13
2023-05-14T02:15:54.189Z,16.95
2023-05-14T02:18:40.325Z,19.88
2023-05-14T02:22:06.804Z,22.30
2023-05-14T02:24:54.446Z,19.33
2023-05-14T02:27:41.658Z,17.20
2023-05-14T02:30:28.657Z,25.27
2023-05-14T02:33:15.617Z,18.67
2023-05-14T02:36:01.834Z,24.50
2023-05-14T02:38:48.349Z,22.33
2023-05-14T02:41:34.616Z,21.40
2023-05-14T02:44:20.814Z,20.00
2023-05-14T02:47:07.217Z,21.58
2023-05-14T02:49:53.825Z,18.52
2023-05-14T02:52:40.547Z,21.92
2023-05-14T02:55:26.676Z,17.45
2023-05-14T02:58:12.941Z,23.83
2023-05-14T03:00:59.643Z,22.75
2023-05-14T03:03:46.670Z,22.27
2023-05-14T03:06:33.542Z,18.60
2023-05-14T03:09:20.263Z,26.65
2023-05-14T03:12:07.419Z,19.13
2023-05-14T03:14:53.747Z,20.08
2023-05-14T03:17:39.779Z,22.63
2023-05-14T03:20:26.285Z,19.90
2023-05-14T03:23:12.901Z,22.10
2023-05-14T03:25:59.114Z,20.48
2023-05-14T03:28:45.486Z,22.35
2023-05-14T03:31:32.853Z,17.20
2023-05-14T03:34:20.151Z,19.52
2023-05-14T03:37:06.374Z,25.58
2023-05-14T03:39:52.733Z,25.00
2023-05-14T03:42:38.992Z,23.30
2023-05-14T03:45:25.174Z,19.90
2023-05-14T03:48:12.264Z,18.42
2023-05-14T03:50:58.240Z,19.05
2023-05-14T03:53:44.484Z,19.52
2023-05-14T03:56:32.293Z,23.63
2023-05-14T03:59:18.484Z,17.33
2023-05-14T04:02:05.446Z,17.70
2023-05-14T04:04:52.423Z,20.67
2023-05-14T04:07:40.354Z,19.02
2023-05-14T04:10:26.488Z,21.38
2023-05-14T04:13:13.305Z,18.27
2023-05-14T04:16:00.752Z,19.25
2023-05-14T04:18:47.429Z,18.70
2023-05-14T04:21:34.905Z,23.23
2023-05-14T04:24:21.424Z,21.55
2023-05-14T04:27:08.256Z,24.02
2023-05-14T04:29:54.716Z,29.08
2023-05-14T04:32:41.072Z,29.80
2023-05-14T04:35:27.775Z,22.70
2023-05-14T04:38:17.968Z,22.83
2023-05-14T04:41:05.329Z,19.15
2023-05-14T04:43:51.653Z,27.85
2023-05-14T04:46:38.393Z,23.27
2023-05-14T04:49:25.101Z,20.88
2023-05-14T04:52:11.185Z,25.05
2023-05-14T04:55:15.440Z,21.42
2023-05-14T04:58:02.180Z,24.85
2023-05-14T05:00:49.058Z,28.65
2023-05-14T05:03:35.773Z,22.10
2023-05-14T05:06:22.781Z,20.80
2023-05-14T05:09:09.986Z,23.95
2023-05-14T05:11:56.080Z,18.10
2023-05-14T05:14:42.434Z,18.17
2023-05-14T05:17:30.371Z,22.58
2023-05-14T05:20:16.571Z,18.52
2023-05-14T05:23:02.874Z,23.35
2023-05-14T05:25:48.997Z,19.70
2023-05-14T05:28:35.398Z,14.55
2023-05-14T05:31:23.063Z,20.02
2023-05-14T05:34:09.354Z,16.30
2023-05-14T05:36:58.063Z,17.33
2023-05-14T05:39:52.616Z,21.15
2023-05-14T05:42:38.811Z,17.70
2023-05-14T05:45:25.189Z,16.38
2023-05-14T05:48:11.967Z,16.33
2023-05-14T05:50:58.295Z,14.60
2023-05-14T05:53:44.386Z,12.77
2023-05-14T05:56:30.985Z,11.23
2023-05-14T05:59:17.047Z,13.77
2023-05-14T06:02:03.337Z,14.15
2023-05-14T06:04:49.406Z,8.50
2023-05-14T06:07:35.992Z,11.40
2023-05-14T06:10:22.752Z,12.13
2023-05-14T06:13:09.144Z,10.45
2023-05-14T06:15:57.137Z,13.88
2023-05-14T06:18:43.843Z,10.20
2023-05-14T06:21:33.297Z,14.93
2023-05-14T06:24:20.912Z,12.68
2023-05-14T06:27:10.049Z,12.73
2023-05-14T06:29:56.789Z,8.02
2023-05-14T06:32:43.664Z,6.70
2023-05-14T06:35:29.795Z,10.77
2023-05-14T06:38:15.860Z,14.57
2023-05-14T06:41:02.129Z,8.60
2023-05-14T06:43:55.386Z,11.63
2023-05-14T06:46:42.258Z,9.15
2023-05-14T06:49:28.995Z,8.63
2023-05-14T06:52:15.620Z,11.77
2023-05-14T06:55:02.090Z,7.82
2023-05-14T06:57:49.030Z,9.55
2023-05-14T07:00:35.774Z,9.85
2023-05-14T07:03:22.556Z,10.20
2023-05-14T07:06:10.852Z,7.55
2023-05-14T07:08:58.064Z,7.18
2023-05-14T07:11:44.275Z,10.57
2023-05-14T07:14:30.474Z,11.77
2023-05-14T07:17:16.837Z,13.35
2023-05-14T07:20:03.255Z,8.98
2023-05-14T07:22:49.515Z,7.82
2023-05-14T07:25:35.677Z,9.30
2023-05-14T07:28:21.897Z,7.68
2023-05-14T07:31:09.295Z,9.77
2023-05-14T07:33:55.834Z,11.10
2023-05-14T07:36:42.944Z,10.88
2023-05-14T07:39:28.962Z,7.82
2023-05-14T07:42:24.668Z,9.50
2023-05-14T07:45:18.248Z,12.73
2023-05-14T07:48:05.148Z,8.60
2023-05-14T07:50:52.031Z,9.68
2023-05-14T07:53:39.143Z,7.97
2023-05-14T07:56:25.842Z,11.10
2023-05-14T07:59:12.571Z,15.05
2023-05-14T08:01:58.969Z,14.55
2023-05-14T08:04:45.613Z,12.65
2023-05-14T08:07:31.687Z,20.27
2023-05-14T08:10:17.842Z,16.13
2023-05-14T08:13:08.189Z,16.13
2023-05-14T08:15:54.263Z,16.83
2023-05-14T08:18:42.458Z,17.25
2023-05-14T08:21:53.598Z,17.00
2023-05-14T08:28:28.174Z,28.00
2023-05-14T08:31:15.406Z,22.55
2023-05-14T08:34:02.293Z,24.00
2023-05-14T08:36:48.594Z,21.35
2023-05-14T08:39:36.962Z,15.68
2023-05-14T08:42:25.076Z,12.82
2023-05-14T08:45:34.558Z,12.18
2023-05-14T08:48:23.356Z,15.35
2023-05-14T08:51:10.117Z,19.05
2023-05-14T08:53:56.962Z,19.27
2023-05-14T08:57:03.575Z,18.70
2023-05-14T08:59:49.841Z,13.70
2023-05-14T09:02:36.405Z,18.40
2023-05-14T09:06:06.650Z,19.80
2023-05-14T09:08:53.929Z,24.58
2023-05-14T09:11:43.880Z,18.23
2023-05-14T09:14:30.511Z,18.85
2023-05-14T09:17:17.360Z,20.63
2023-05-14T09:20:04.694Z,12.60
2023-05-14T09:22:54.371Z,13.65
2023-05-14T09:25:41.125Z,9.88
2023-05-14T09:28:30.341Z,14.48
2023-05-14T09:31:16.500Z,15.65
2023-05-14T09:34:02.731Z,14.65
2023-05-14T09:36:48.803Z,15.82
2023-05-14T09:39:36.729Z,18.60
2023-05-14T09:42:23.474Z,16.45
2023-05-14T09:53:03.100Z,9.63
2023-05-14T09:55:50.015Z,18.10
2023-05-14T09:58:36.520Z,14.20
2023-05-14T10:01:23.420Z,15.52
2023-05-14T10:04:10.871Z,10.65
2023-05-14T10:06:57.369Z,12.18
2023-05-14T10:09:45.094Z,16.50
2023-05-14T10:12:34.946Z,8.32
2023-05-14T10:15:26.947Z,11.23
2023-05-14T10:18:26.147Z,21.95
2023-05-14T10:21:13.195Z,15.90
2023-05-14T10:25:30.732Z,16.77
2023-05-14T10:28:04.543Z,12.90
2023-05-14T10:30:51.216Z,20.25
2023-05-14T10:33:50.952Z,18.90
2023-05-14T10:36:45.574Z,21.98
2023-05-14T10:39:41.634Z,18.80
2023-05-14T10:42:29.396Z,20.40
2023-05-14T10:45:16.161Z,21.77
2023-05-14T10:48:02.353Z,17.10
2023-05-14T10:50:52.218Z,15.40
2023-05-14T10:53:39.566Z,11.63
2023-05-14T10:56:25.935Z,20.52
2023-05-14T10:59:12.967Z,13.02
2023-05-14T11:01:59.719Z,14.65
2023-05-14T11:04:53.007Z,9.30
2023-05-14T11:07:40.923Z,17.98
2023-05-14T11:10:53.686Z,12.68
2023-05-14T11:13:40.300Z,16.10
2023-05-14T11:16:30.944Z,14.80
2023-05-14T11:19:18.133Z,15.43
2023-05-14T11:22:04.380Z,7.32
2023-05-14T11:24:50.981Z,11.02
2023-05-14T11:27:40.651Z,14.40
2023-05-14T11:30:27.628Z,12.10
2023-05-14T11:33:13.669Z,14.07
2023-05-14T11:35:59.862Z,8.63
2023-05-14T11:38:51.490Z,10.57
2023-05-14T11:41:37.722Z,8.77
2023-05-14T11:44:23.973Z,9.48
2023-05-14T11:47:10.183Z,6.95
2023-05-14T11:49:56.912Z,8.00
2023-05-14T11:56:12.581Z,18.10
2023-05-14T11:58:59.476Z,6.82
2023-05-14T12:01:50.743Z,5.97
2023-05-14T12:04:37.558Z,7.75
2023-05-14T12:07:23.884Z,5.75
2023-05-14T12:10:13.054Z,9.68
2023-05-14T12:12:59.064Z,10.45
2023-05-14T12:15:47.742Z,11.82
2023-05-14T12:18:34.663Z,7.63
2023-05-14T12:21:21.766Z,7.43
2023-05-14T12:24:52.072Z,4.85
2023-05-14T12:27:38.834Z,6.72
2023-05-14T12:30:25.226Z,7.07
2023-05-14T12:33:11.685Z,8.93
2023-05-14T12:36:07.379Z,9.93
2023-05-14T12:39:01.832Z,4.85
2023-05-14T12:41:48.186Z,8.27
2023-05-14T12:44:34.409Z,7.78
2023-05-14T12:47:20.596Z,13.35
2023-05-14T12:50:07.496Z,7.60
2023-05-14T12:52:57.950Z,6.30
2023-05-14T12:55:44.453Z,11.55
2023-05-14T12:58:30.577Z,9.05
2023-05-14T13:01:17.386Z,7.30
2023-05-14T13:04:03.790Z,11.25
2023-05-14T13:06:50.619Z,8.65
2023-05-14T13:09:39.085Z,7.15
2023-05-14T13:12:25.306Z,10.45
2023-05-14T13:15:12.445Z,10.18
2023-05-14T13:17:59.067Z,10.32
2023-05-14T13:20:47.179Z,16.33
2023-05-14T13:23:33.926Z,7.32
2023-05-14T13:26:20.449Z,7.18
2023-05-14T13:29:07.082Z,9.65
2023-05-14T13:31:53.326Z,8.65
2023-05-14T13:34:39.508Z,8.32
2023-05-14T13:37:26.545Z,6.80
2023-05-14T13:40:12.941Z,7.45
2023-05-14T13:42:59.445Z,8.52
2023-05-14T13:45:46.625Z,6.72
2023-05-14T13:48:32.900Z,8.50
2023-05-14T13:51:20.000Z,9.02
2023-05-14T13:54:06.974Z,7.15
2023-05-14T13:56:52.950Z,8.05
2023-05-14T13:59:39.106Z,8.70
2023-05-14T14:02:25.755Z,11.45
2023-05-14T14:05:12.203Z,10.15
2023-05-14T14:08:04.590Z,11.15
2023-05-14T14:10:59.620Z,12.52
2023-05-14T14:13:48.696Z,6.88
2023-05-14T14:16:34.966Z,11.27
2023-05-14T14:19:30.234Z,7.68
2023-05-14T14:22:21.236Z,9.43
2023-05-14T14:25:09.223Z,8.32
2023-05-14T14:27:56.397Z,14.13
2023-05-14T14:30:44.436Z,9.45
2023-05-14T14:33:34.768Z,7.18
2023-05-14T14:36:21.692Z,6.15
2023-05-14T14:39:12.970Z,9.60
2023-05-14T14:42:00.040Z,13.50
2023-05-14T14:44:47.515Z,7.60
2023-05-14T14:47:33.972Z,8.23
2023-05-14T14:50:21.224Z,8.13
2023-05-14T14:53:09.553Z,7.22
2023-05-14T14:55:56.853Z,9.60
2023-05-14T14:58:44.001Z,12.57
2023-05-14T15:01:30.352Z,10.57
2023-05-14T15:04:16.498Z,7.75
2023-05-14T15:07:03.069Z,8.32
2023-05-14T15:09:50.010Z,10.15
2023-05-14T15:12:37.192Z,8.40
2023-05-14T15:15:24.204Z,11.50
2023-05-14T15:18:10.535Z,16.58
2023-05-14T15:20:57.006Z,8.98
2023-05-14T15:23:43.245Z,12.27
2023-05-14T15:26:29.468Z,7.65
2023-05-14T15:29:15.805Z,6.60
2023-05-14T15:32:03.100Z,7.72
2023-05-14T15:34:49.692Z,8.38
2023-05-14T15:37:39.910Z,7.75
2023-05-14T15:40:28.388Z,11.48
2023-05-14T15:43:15.434Z,10.20
2023-05-14T15:46:02.214Z,14.40
2023-05-14T15:48:48.588Z,5.85
2023-05-14T15:51:36.231Z,9.23
2023-05-14T15:54:23.401Z,10.63
2023-05-14T15:57:10.313Z,9.15
2023-05-14T15:59:57.746Z,5.82
2023-05-14T16:02:44.474Z,7.85
2023-05-14T16:05:31.676Z,9.13
2023-05-14T16:08:18.935Z,9.07
2023-05-14T16:11:07.009Z,8.20
2023-05-14T16:13:53.451Z,6.97
2023-05-14T16:16:39.878Z,6.22
2023-05-14T16:19:26.288Z,6.28
2023-05-14T16:22:21.662Z,8.68
2023-05-14T16:25:08.636Z,6.50
2023-05-14T16:27:55.912Z,9.57
2023-05-14T16:30:42.340Z,5.43
2023-05-14T16:33:28.730Z,7.85
2023-05-14T16:36:14.865Z,8.00
2023-05-14T16:42:16.834Z,7.88
2023-05-14T16:45:03.673Z,15.43
2023-05-14T16:47:50.571Z,12.20
2023-05-14T16:50:37.268Z,10.82
2023-05-14T16:53:23.533Z,7.88
2023-05-14T16:56:09.862Z,10.23
2023-05-14T16:58:56.517Z,9.70
2023-05-14T17:01:48.631Z,9.05
2023-05-14T17:04:45.862Z,8.10
2023-05-14T17:07:32.849Z,11.32
2023-05-14T17:10:19.938Z,7.45
2023-05-14T17:13:06.176Z,11.02
2023-05-14T17:15:52.872Z,11.30
2023-05-14T17:18:56.601Z,10.07
2023-05-14T17:21:42.838Z,13.43
2023-05-14T17:24:28.923Z,18.73
2023-05-14T17:27:16.557Z,11.05
2023-05-14T17:30:03.828Z,13.45
2023-05-14T17:32:51.099Z,15.05
2023-05-14T17:35:38.435Z,15.55
2023-05-14T17:38:25.367Z,21.02
2023-05-14T17:41:11.713Z,27.30
2023-05-14T17:43:57.993Z,20.70
2023-05-14T17:46:45.525Z,25.65
2023-05-14T17:49:32.414Z,32.88
2023-05-14T17:52:18.651Z,24.02
2023-05-14T17:55:30.431Z,21.67
2023-05-14T17:58:17.345Z,22.27
2023-05-14T18:01:03.761Z,21.98
2023-05-14T18:03:50.282Z,19.77
2023-05-14T18:06:36.687Z,23.23
2023-05-14T18:09:23.017Z,21.05
2023-05-14T18:15:11.155Z,21.08
2023-05-14T18:18:00.822Z,25.95
2023-05-14T18:20:53.735Z,27.50
2023-05-14T18:23:40.920Z,24.88
2023-05-14T18:26:34.480Z,22.77
2023-05-14T18:29:23.035Z,19.90
2023-05-14T18:32:13.510Z,19.98
2023-05-14T18:35:00.164Z,26.05
2023-05-14T18:37:56.135Z,18.65
2023-05-14T18:40:43.287Z,19.55
2023-05-14T18:43:36.651Z,20.90
2023-05-14T18:46:25.569Z,27.90
2023-05-14T18:49:13.094Z,20.77
2023-05-14T18:52:02.172Z,23.20
2023-05-14T18:54:49.173Z,21.85
2023-05-14T18:57:36.353Z,24.75
2023-05-14T19:00:23.722Z,26.05
2023-05-14T19:03:10.783Z,26.55
2023-05-14T19:05:58.520Z,31.77
2023-05-14T19:08:45.388Z,31.33
2023-05-14T19:11:31.529Z,33.15
2023-05-14T19:14:17.598Z,35.20
2023-05-14T19:17:03.858Z,30.02
2023-05-14T19:19:50.456Z,30.77
2023-05-14T19:22:36.780Z,29.73
2023-05-14T19:25:24.419Z,37.65
2023-05-14T19:28:11.353Z,28.63
2023-05-14T19:30:57.784Z,36.17
2023-05-14T19:33:44.954Z,34.17
2023-05-14T19:36:32.393Z,38.35
2023-05-14T19:39:18.369Z,33.58
2023-05-14T19:42:04.552Z,34.08
2023-05-14T19:44:50.863Z,35.30
2023-05-14T19:47:37.925Z,31.42
2023-05-14T19:50:24.200Z,29.63
2023-05-14T19:53:11.276Z,29.58
2023-05-14T19:55:58.698Z,27.55
2023-05-14T19:58:45.636Z,33.55
2023-05-14T20:01:33.088Z,30.42
2023-05-14T20:04:19.927Z,32.55
2023-05-14T20:07:07.378Z,33.15
2023-05-14T20:12:54.465Z,38.10
2023-05-14T20:15:40.935Z,36.67
2023-05-14T20:18:27.340Z,38.53
2023-05-14T20:21:13.642Z,41.03
2023-05-14T20:23:59.709Z,35.28
2023-05-14T20:26:46.396Z,37.85
2023-05-14T20:29:33.170Z,41.35
2023-05-14T20:32:24.861Z,34.90
2023-05-14T20:35:11.394Z,42.83
2023-05-14T20:37:57.879Z,34.08
2023-05-14T20:40:44.658Z,37.67
2023-05-14T20:43:31.734Z,29.27
2023-05-14T20:46:18.052Z,27.08
2023-05-14T20:49:04.117Z,35.88
2023-05-14T20:51:50.458Z,31.50
2023-05-14T20:54:36.862Z,33.00
2023-05-14T20:57:23.423Z,33.88
2023-05-14T21:00:10.303Z,38.00
2023-05-14T21:02:57.503Z,27.17
2023-05-14T21:05:43.799Z,28.80
2023-05-14T21:08:33.036Z,32.35
2023-05-14T21:11:20.548Z,21.25
2023-05-14T21:14:07.529Z,26.30
2023-05-14T21:16:53.796Z,21.17
2023-05-14T21:19:39.938Z,24.75
2023-05-14T21:22:26.119Z,23.30
2023-05-14T21:25:12.354Z,20.98
2023-05-14T21:27:58.556Z,23.10
2023-05-14T21:30:44.714Z,21.30
2023-05-14T21:33:31.055Z,18.15
2023-05-14T21:36:17.919Z,21.30
2023-05-14T21:39:04.269Z,22.60
2023-05-14T21:41:51.169Z,24.05
2023-05-14T21:44:37.583Z,22.08
2023-05-14T21:47:24.078Z,27.25
2023-05-14T21:50:10.929Z,27.83
2023-05-14T21:52:57.328Z,19.17
2023-05-14T21:55:43.464Z,18.60
2023-05-14T21:58:30.277Z,23.77
2023-05-14T22:01:16.687Z,23.17
2023-05-14T22:04:03.056Z,20.88
2023-05-14T22:06:49.236Z,22.30
2023-05-14T22:09:35.588Z,22.92
2023-05-14T22:12:22.101Z,16.83
2023-05-14T22:15:09.138Z,19.83
2023-05-14T22:17:55.921Z,20.50
2023-05-14T22:20:43.490Z,18.65
2023-05-14T22:23:29.976Z,19.73
2023-05-14T22:26:16.302Z,18.17
2023-05-14T22:29:03.264Z,17.85
2023-05-14T22:31:49.867Z,18.30
2023-05-14T22:34:36.637Z,25.52
2023-05-14T22:37:23.013Z,19.23
2023-05-14T22:40:10.077Z,19.55
2023-05-14T22:42:56.194Z,20.10
2023-05-14T22:45:42.509Z,20.42
2023-05-14T22:48:28.818Z,20.02
2023-05-14T22:51:14.856Z,24.15
2023-05-14T22:54:01.156Z,20.55
2023-05-14T22:56:48.048Z,17.02
2023-05-14T22:59:34.474Z,21.75
2023-05-14T23:02:21.440Z,21.00
2023-05-14T23:05:09.053Z,21.90
2023-05-14T23:07:55.532Z,24.38
2023-05-14T23:10:42.284Z,24.38
2023-05-14T23:13:28.647Z,27.58
2023-05-14T23:16:14.928Z,29.60
2023-05-14T23:19:01.288Z,26.63
2023-05-14T23:21:47.823Z,25.40
2023-05-14T23:24:33.975Z,25.95
2023-05-14T23:27:20.341Z,24.90
2023-05-14T23:30:06.907Z,27.23
2023-05-14T23:32:52.848Z,26.25
2023-05-14T23:35:54.542Z,25.23
2023-05-14T23:38:41.121Z,25.75
2023-05-14T23:41:28.266Z,23.73
2023-05-14T23:44:15.237Z,25.77
2023-05-14T23:47:01.649Z,28.45
2023-05-14T23:49:47.960Z,26.80
2023-05-14T23:52:34.115Z,26.15
2023-05-14T23:55:20.617Z,26.63
2023-05-14T23:58:07.876Z,33.15
